Terminal Aerodrome Forecast
Issued by NWS

Home | Current Version | Previous Version | Graphics & Text | Print | Product List | Glossary On
Versions: 1 2 3 4 5 6 7 8 9 10 11 12 13 14 15 16 17 18 19 20 21 22 23
152
FTUS43 KABR 081133
TAFATY
TAF
KATY 081133Z 0812/0912 31015G23KT 4SM -SN BLSN OVC018
     FM081400 31018G26KT 5SM BLSN VCSH OVC035
     FM081600 31017G26KT 6SM BLSN VCSH OVC040
     FM081800 31016G24KT P6SM OVC045
     FM090100 31010KT P6SM BKN070
     FM090800 31006KT P6SM BKN050
     FM091100 31005KT P6SM SCT060=

USA.gov is the U.S. government's official web portal to all federal, state and local government web resources and services.